WXM80 ListenWXM80 Stop

You find our weather info also at:

UK Metoffice

WeatherCloud

Weather Underground

Northeastern Weather Network

AWEKAS

Citizen Weather Observer Program (CWOP)

HAMweather, WeatherForYou, PWS Weather


Weather Underground History page Text

Daily Summary for June 10, 2017 Units:  Both    English   Metric
« Previous Day
Next Day »
Daily Weekly Monthly Yearly Custom
  High: Low: Average:
Temperature: 90.6 °F /  32.6 °C 61.0 °F /  16.1 °C 75 °F /  23.9 °C
Dew Point: 65.3 °F /  18.5 °C 54.3 °F /  12.4 °C 59.7 °F /  15.4 °C
Humidity: 84 % 38 % 61 %
Wind Speed: 7.2 mph /  11.6 km/h - 2 mph /  3.2 km/h
Wind Gust: 16.0 mph /  25.7 km/h - -
Wind:- - SW
Pressure: 29.98 in /  1015.1 hPa 29.83 in /  1010 hPa -
Precipitation: 0.00 in /  0 mm    
Historical Graphs
 
 
Tabular Data for June 10, 2017
Time Temperature Dew Point Pressure Wind Wind Speed Wind Gust Humidity Rainfall Rate (Hourly)
00:01 65.8 °F /  18.8 °C 54.9 °F /  12.7 °C 29.83 in /  1010 hPa SW 0.6 mph /  1 km/h 2.3 mph /  3.7 km/h 68 % 0.00 in /  0 mm
00:07 65.7 °F /  18.7 °C 54.8 °F /  12.7 °C 29.83 in /  1010 hPa SW 1.2 mph /  1.9 km/h 3.5 mph /  5.6 km/h 68 % 0.00 in /  0 mm
00:12 65.6 °F /  18.7 °C 54.8 °F /  12.7 °C 29.84 in /  1010.4 hPa SW 0.2 mph /  0.3 km/h 1.0 mph /  1.6 km/h 68 % 0.00 in /  0 mm
00:17 65.6 °F /  18.7 °C 54.8 °F /  12.7 °C 29.84 in /  1010.4 hPa SW 0.1 mph /  0.2 km/h   68 % 0.00 in /  0 mm
00:22 65.6 °F /  18.7 °C 54.8 °F /  12.7 °C 29.84 in /  1010.4 hPa Calm     68 % 0.00 in /  0 mm
00:27 65.6 °F /  18.7 °C 54.8 °F /  12.7 °C 29.84 in /  1010.4 hPa SW 0.9 mph /  1.4 km/h 2.3 mph /  3.7 km/h 68 % 0.00 in /  0 mm
00:32 65.5 °F /  18.6 °C 54.7 °F /  12.6 °C 29.84 in /  1010.4 hPa Calm     68 % 0.00 in /  0 mm
00:37 65.5 °F /  18.6 °C 54.7 °F /  12.6 °C 29.84 in /  1010.4 hPa Calm     68 % 0.00 in /  0 mm
00:42 65.5 °F /  18.6 °C 54.7 °F /  12.6 °C 29.84 in /  1010.4 hPa Calm     68 % 0.00 in /  0 mm
00:47 65.5 °F /  18.6 °C 54.7 °F /  12.6 °C 29.84 in /  1010.4 hPa SW 0.4 mph /  0.6 km/h 2.3 mph /  3.7 km/h 68 % 0.00 in /  0 mm
00:52 65.4 °F /  18.6 °C 54.6 °F /  12.6 °C 29.84 in /  1010.4 hPa SW 0.4 mph /  0.6 km/h 2.3 mph /  3.7 km/h 68 % 0.00 in /  0 mm
00:57 65.4 °F /  18.6 °C 54.6 °F /  12.6 °C 29.85 in /  1010.7 hPa Calm   1.2 mph /  1.9 km/h 68 % 0.00 in /  0 mm
01:02 65.4 °F /  18.6 °C 54.6 °F /  12.6 °C 29.85 in /  1010.7 hPa SW 0.3 mph /  0.5 km/h 1.2 mph /  1.9 km/h 68 % 0.00 in /  0 mm
01:07 65.4 °F /  18.6 °C 54.6 °F /  12.6 °C 29.85 in /  1010.7 hPa SW 1.2 mph /  1.9 km/h 2.3 mph /  3.7 km/h 68 % 0.00 in /  0 mm
01:12 65.5 °F /  18.6 °C 54.7 °F /  12.6 °C 29.85 in /  1010.7 hPa SW 0.7 mph /  1.1 km/h 1.2 mph /  1.9 km/h 68 % 0.00 in /  0 mm
01:23 65.5 °F /  18.6 °C 54.7 °F /  12.6 °C 29.85 in /  1010.7 hPa SW 0.5 mph /  0.8 km/h 2.3 mph /  3.7 km/h 68 % 0.00 in /  0 mm
01:28 65.6 °F /  18.7 °C 54.8 °F /  12.7 °C 29.85 in /  1010.7 hPa SW 1.1 mph /  1.8 km/h 3.5 mph /  5.6 km/h 68 % 0.00 in /  0 mm
01:33 65.6 °F /  18.7 °C 54.8 °F /  12.7 °C 29.85 in /  1010.7 hPa SW 0.5 mph /  0.8 km/h 2.3 mph /  3.7 km/h 68 % 0.00 in /  0 mm
01:38 65.7 °F /  18.7 °C 54.8 °F /  12.7 °C 29.85 in /  1010.7 hPa SW 1.1 mph /  1.8 km/h 2.3 mph /  3.7 km/h 68 % 0.00 in /  0 mm
01:39 65.7 °F /  18.7 °C 54.8 °F /  12.7 °C 29.85 in /  1010.7 hPa SW 1.5 mph /  2.4 km/h 2.3 mph /  3.7 km/h 68 % 0.00 in /  0 mm
01:44 65.7 °F /  18.7 °C 54.8 °F /  12.7 °C 29.85 in /  1010.7 hPa SW 1.4 mph /  2.3 km/h 2.3 mph /  3.7 km/h 68 % 0.00 in /  0 mm
01:49 65.7 °F /  18.7 °C 54.8 °F /  12.7 °C 29.85 in /  1010.7 hPa SW 1.1 mph /  1.8 km/h 2.0 mph /  3.2 km/h 68 % 0.00 in /  0 mm
01:54 65.7 °F /  18.7 °C 54.8 °F /  12.7 °C 29.85 in /  1010.7 hPa SW 1.3 mph /  2.1 km/h 2.3 mph /  3.7 km/h 68 % 0.00 in /  0 mm
01:59 65.7 °F /  18.7 °C 54.8 °F /  12.7 °C 29.85 in /  1010.7 hPa SW 0.8 mph /  1.3 km/h 2.3 mph /  3.7 km/h 68 % 0.00 in /  0 mm
02:04 65.6 °F /  18.7 °C 54.8 °F /  12.7 °C 29.85 in /  1010.7 hPa SW 1.7 mph /  2.7 km/h 3.5 mph /  5.6 km/h 68 % 0.00 in /  0 mm
02:09 65.6 °F /  18.7 °C 54.8 °F /  12.7 °C 29.85 in /  1010.7 hPa SW 2.0 mph /  3.2 km/h 3.5 mph /  5.6 km/h 68 % 0.00 in /  0 mm
02:14 65.5 °F /  18.6 °C 54.7 °F /  12.6 °C 29.85 in /  1010.7 hPa SSW 0.8 mph /  1.3 km/h 2.3 mph /  3.7 km/h 68 % 0.00 in /  0 mm
02:20 65.5 °F /  18.6 °C 54.7 °F /  12.6 °C 29.86 in /  1011.1 hPa SSW 0.1 mph /  0.2 km/h 2.3 mph /  3.7 km/h 68 % 0.00 in /  0 mm
02:25 65.4 °F /  18.6 °C 55.0 °F /  12.8 °C 29.86 in /  1011.1 hPa SSW 1.6 mph /  2.6 km/h 2.3 mph /  3.7 km/h 69 % 0.00 in /  0 mm
02:30 65.4 °F /  18.6 °C 54.6 °F /  12.6 °C 29.85 in /  1010.7 hPa SSW 1.6 mph /  2.6 km/h 2.3 mph /  3.7 km/h 68 % 0.00 in /  0 mm
02:35 65.3 °F /  18.5 °C 54.5 °F /  12.5 °C 29.85 in /  1010.7 hPa SW 1.4 mph /  2.3 km/h 2.3 mph /  3.7 km/h 68 % 0.00 in /  0 mm
02:40 65.3 °F /  18.5 °C 54.9 °F /  12.7 °C 29.86 in /  1011.1 hPa SW 1.8 mph /  2.9 km/h 3.5 mph /  5.6 km/h 69 % 0.00 in /  0 mm
02:45 65.2 °F /  18.4 °C 54.8 °F /  12.7 °C 29.86 in /  1011.1 hPa SW 0.7 mph /  1.1 km/h 2.3 mph /  3.7 km/h 69 % 0.00 in /  0 mm
02:50 65.2 °F /  18.4 °C 54.8 °F /  12.7 °C 29.86 in /  1011.1 hPa SW 1.8 mph /  2.9 km/h 3.5 mph /  5.6 km/h 69 % 0.00 in /  0 mm
02:55 65.2 °F /  18.4 °C 54.8 °F /  12.7 °C 29.86 in /  1011.1 hPa SW 2.0 mph /  3.2 km/h 3.5 mph /  5.6 km/h 69 % 0.00 in /  0 mm
03:00 65.2 °F /  18.4 °C 54.8 °F /  12.7 °C 29.86 in /  1011.1 hPa SW 1.9 mph /  3.1 km/h 3.5 mph /  5.6 km/h 69 % 0.00 in /  0 mm
03:05 65.1 °F /  18.4 °C 54.7 °F /  12.6 °C 29.86 in /  1011.1 hPa WSW 1.8 mph /  2.9 km/h 3.5 mph /  5.6 km/h 69 % 0.00 in /  0 mm
03:10 65.2 °F /  18.4 °C 54.8 °F /  12.7 °C 29.86 in /  1011.1 hPa WSW 0.3 mph /  0.5 km/h 3.5 mph /  5.6 km/h 69 % 0.00 in /  0 mm
03:15 65.2 °F /  18.4 °C 54.4 °F /  12.4 °C 29.86 in /  1011.1 hPa WSW 0.9 mph /  1.4 km/h 2.3 mph /  3.7 km/h 68 % 0.00 in /  0 mm
03:20 65.2 °F /  18.4 °C 54.4 °F /  12.4 °C 29.86 in /  1011.1 hPa WSW 1.3 mph /  2.1 km/h 2.3 mph /  3.7 km/h 68 % 0.00 in /  0 mm
03:25 65.3 °F /  18.5 °C 54.5 °F /  12.5 °C 29.86 in /  1011.1 hPa WSW 1.2 mph /  1.9 km/h 2.3 mph /  3.7 km/h 68 % 0.00 in /  0 mm
03:30 65.3 °F /  18.5 °C 54.9 °F /  12.7 °C 29.86 in /  1011.1 hPa WSW 1.5 mph /  2.4 km/h 3.0 mph /  4.8 km/h 69 % 0.00 in /  0 mm
03:35 65.3 °F /  18.5 °C 54.5 °F /  12.5 °C 29.86 in /  1011.1 hPa WSW 1.1 mph /  1.8 km/h 2.3 mph /  3.7 km/h 68 % 0.00 in /  0 mm
03:40 65.3 °F /  18.5 °C 54.5 °F /  12.5 °C 29.86 in /  1011.1 hPa WSW 1.5 mph /  2.4 km/h 3.0 mph /  4.8 km/h 68 % 0.00 in /  0 mm
03:45 65.3 °F /  18.5 °C 54.5 °F /  12.5 °C 29.86 in /  1011.1 hPa WSW 1.1 mph /  1.8 km/h 2.3 mph /  3.7 km/h 68 % 0.00 in /  0 mm
03:50 65.2 °F /  18.4 °C 54.4 °F /  12.4 °C 29.87 in /  1011.4 hPa WSW 0.2 mph /  0.3 km/h 1.2 mph /  1.9 km/h 68 % 0.00 in /  0 mm
03:55 65.2 °F /  18.4 °C 54.4 °F /  12.4 °C 29.86 in /  1011.1 hPa WSW 0.6 mph /  1 km/h 1.2 mph /  1.9 km/h 68 % 0.00 in /  0 mm
04:00 65.2 °F /  18.4 °C 54.4 °F /  12.4 °C 29.87 in /  1011.4 hPa WSW 0.5 mph /  0.8 km/h 1.2 mph /  1.9 km/h 68 % 0.00 in /  0 mm
04:05 65.2 °F /  18.4 °C 54.8 °F /  12.7 °C 29.86 in /  1011.1 hPa WSW 1.7 mph /  2.7 km/h 3.5 mph /  5.6 km/h 69 % 0.00 in /  0 mm
04:10 65.1 °F /  18.4 °C 54.7 °F /  12.6 °C 29.87 in /  1011.4 hPa WSW 2.7 mph /  4.3 km/h 3.5 mph /  5.6 km/h 69 % 0.00 in /  0 mm
04:15 65.0 °F /  18.3 °C 54.6 °F /  12.6 °C 29.87 in /  1011.4 hPa WSW 1.8 mph /  2.9 km/h 3.5 mph /  5.6 km/h 69 % 0.00 in /  0 mm
04:20 64.9 °F /  18.3 °C 54.5 °F /  12.5 °C 29.87 in /  1011.4 hPa WSW 1.2 mph /  1.9 km/h 3.5 mph /  5.6 km/h 69 % 0.00 in /  0 mm
04:25 64.8 °F /  18.2 °C 54.4 °F /  12.4 °C 29.87 in /  1011.4 hPa WSW 0.7 mph /  1.1 km/h 2.3 mph /  3.7 km/h 69 % 0.00 in /  0 mm
04:30 64.7 °F /  18.2 °C 54.3 °F /  12.4 °C 29.87 in /  1011.4 hPa Calm   1.2 mph /  1.9 km/h 69 % 0.00 in /  0 mm
04:35 64.7 °F /  18.2 °C 54.7 °F /  12.6 °C 29.87 in /  1011.4 hPa Calm     70 % 0.00 in /  0 mm
04:40 64.6 °F /  18.1 °C 55.0 °F /  12.8 °C 29.87 in /  1011.4 hPa Calm     71 % 0.00 in /  0 mm
04:45 64.5 °F /  18.1 °C 55.3 °F /  12.9 °C 29.87 in /  1011.4 hPa WSW 0.8 mph /  1.3 km/h 2.3 mph /  3.7 km/h 72 % 0.00 in /  0 mm
04:50 64.3 °F /  17.9 °C 54.7 °F /  12.6 °C 29.87 in /  1011.4 hPa Calm   1.2 mph /  1.9 km/h 71 % 0.00 in /  0 mm
04:55 64.1 °F /  17.8 °C 54.5 °F /  12.5 °C 29.87 in /  1011.4 hPa WSW 0.4 mph /  0.6 km/h 2.3 mph /  3.7 km/h 71 % 0.00 in /  0 mm
05:00 64.0 °F /  17.8 °C 55.2 °F /  12.9 °C 29.88 in /  1011.7 hPa Calm   1.2 mph /  1.9 km/h 73 % 0.00 in /  0 mm
05:05 63.7 °F /  17.6 °C 55.3 °F /  12.9 °C 29.87 in /  1011.4 hPa WSW 0.2 mph /  0.3 km/h 1.2 mph /  1.9 km/h 74 % 0.00 in /  0 mm
05:11 63.4 °F /  17.4 °C 55.0 °F /  12.8 °C 29.87 in /  1011.4 hPa Calm   2.0 mph /  3.2 km/h 74 % 0.00 in /  0 mm
05:16 63.2 °F /  17.3 °C 54.8 °F /  12.7 °C 29.87 in /  1011.4 hPa Calm   1.0 mph /  1.6 km/h 74 % 0.00 in /  0 mm
05:21 62.9 °F /  17.2 °C 55.2 °F /  12.9 °C 29.88 in /  1011.7 hPa Calm     76 % 0.00 in /  0 mm
05:26 62.6 °F /  17 °C 54.9 °F /  12.7 °C 29.88 in /  1011.7 hPa Calm     76 % 0.00 in /  0 mm
05:31 62.3 °F /  16.8 °C 54.6 °F /  12.6 °C 29.88 in /  1011.7 hPa WSW 0.1 mph /  0.2 km/h 1.2 mph /  1.9 km/h 76 % 0.00 in /  0 mm
05:36 62.1 °F /  16.7 °C 54.8 °F /  12.7 °C 29.88 in /  1011.7 hPa Calm   1.0 mph /  1.6 km/h 77 % 0.00 in /  0 mm
05:41 61.9 °F /  16.6 °C 54.6 °F /  12.6 °C 29.88 in /  1011.7 hPa WSW 1.0 mph /  1.6 km/h 1.2 mph /  1.9 km/h 77 % 0.00 in /  0 mm
05:43 61.8 °F /  16.6 °C 54.5 °F /  12.5 °C 29.88 in /  1011.7 hPa Calm   1.2 mph /  1.9 km/h 77 % 0.00 in /  0 mm
05:49 61.6 °F /  16.4 °C 54.3 °F /  12.4 °C 29.88 in /  1011.7 hPa Calm   1.2 mph /  1.9 km/h 77 % 0.00 in /  0 mm
05:54 61.5 °F /  16.4 °C 55.3 °F /  12.9 °C 29.89 in /  1012.1 hPa Calm     80 % 0.00 in /  0 mm
05:59 61.3 °F /  16.3 °C 55.1 °F /  12.8 °C 29.89 in /  1012.1 hPa Calm     80 % 0.00 in /  0 mm
06:04 61.2 °F /  16.2 °C 55.0 °F /  12.8 °C 29.89 in /  1012.1 hPa Calm     80 % 0.00 in /  0 mm
06:09 61.1 °F /  16.2 °C 54.9 °F /  12.7 °C 29.89 in /  1012.1 hPa Calm     80 % 0.00 in /  0 mm
06:14 61.0 °F /  16.1 °C 54.4 °F /  12.4 °C 29.89 in /  1012.1 hPa Calm     79 % 0.00 in /  0 mm
06:19 61.0 °F /  16.1 °C 54.8 °F /  12.7 °C 29.90 in /  1012.4 hPa Calm     80 % 0.00 in /  0 mm
06:24 61.0 °F /  16.1 °C 55.5 °F /  13.1 °C 29.90 in /  1012.4 hPa Calm     82 % 0.00 in /  0 mm
06:29 61.0 °F /  16.1 °C 55.5 °F /  13.1 °C 29.90 in /  1012.4 hPa WSW 0.2 mph /  0.3 km/h 1.2 mph /  1.9 km/h 82 % 0.00 in /  0 mm
06:34 61.1 °F /  16.2 °C 55.9 °F /  13.3 °C 29.90 in /  1012.4 hPa WSW 0.1 mph /  0.2 km/h 1.2 mph /  1.9 km/h 83 % 0.00 in /  0 mm
06:39 61.3 °F /  16.3 °C 56.4 °F /  13.6 °C 29.90 in /  1012.4 hPa WSW 0.1 mph /  0.2 km/h 1.2 mph /  1.9 km/h 84 % 0.00 in /  0 mm
06:44 61.5 °F /  16.4 °C 56.0 °F /  13.3 °C 29.90 in /  1012.4 hPa WSW 0.4 mph /  0.6 km/h 1.2 mph /  1.9 km/h 82 % 0.00 in /  0 mm
06:49 61.8 °F /  16.6 °C 56.2 °F /  13.4 °C 29.90 in /  1012.4 hPa WSW 1.4 mph /  2.3 km/h 2.3 mph /  3.7 km/h 82 % 0.00 in /  0 mm
06:54 62.2 °F /  16.8 °C 56.3 °F /  13.5 °C 29.90 in /  1012.4 hPa WSW 0.3 mph /  0.5 km/h 1.2 mph /  1.9 km/h 81 % 0.00 in /  0 mm
06:59 62.8 °F /  17.1 °C 56.2 °F /  13.4 °C 29.91 in /  1012.8 hPa WSW 1.5 mph /  2.4 km/h 2.3 mph /  3.7 km/h 79 % 0.00 in /  0 mm
07:04 63.4 °F /  17.4 °C 56.8 °F /  13.8 °C 29.91 in /  1012.8 hPa WSW 0.8 mph /  1.3 km/h 2.3 mph /  3.7 km/h 79 % 0.00 in /  0 mm
07:09 64.1 °F /  17.8 °C 57.1 °F /  13.9 °C 29.91 in /  1012.8 hPa WSW 2.2 mph /  3.5 km/h 6.0 mph /  9.7 km/h 78 % 0.00 in /  0 mm
07:14 64.7 °F /  18.2 °C 57.3 °F /  14.1 °C 29.91 in /  1012.8 hPa SW 0.7 mph /  1.1 km/h 1.2 mph /  1.9 km/h 77 % 0.00 in /  0 mm
07:19 65.4 °F /  18.6 °C 57.6 °F /  14.2 °C 29.92 in /  1013.1 hPa WSW 3.9 mph /  6.3 km/h 6.0 mph /  9.7 km/h 76 % 0.00 in /  0 mm
07:24 66.1 °F /  18.9 °C 57.9 °F /  14.4 °C 29.92 in /  1013.1 hPa West 2.5 mph /  4 km/h 6.9 mph /  11.1 km/h 75 % 0.00 in /  0 mm
07:29 66.7 °F /  19.3 °C 57.4 °F /  14.1 °C 29.92 in /  1013.1 hPa WSW 3.7 mph /  6 km/h 6.9 mph /  11.1 km/h 72 % 0.00 in /  0 mm
07:34 67.3 °F /  19.6 °C 57.6 °F /  14.2 °C 29.93 in /  1013.4 hPa WSW 2.4 mph /  3.9 km/h 6.9 mph /  11.1 km/h 71 % 0.00 in /  0 mm
07:40 67.8 °F /  19.9 °C 58.1 °F /  14.5 °C 29.93 in /  1013.4 hPa WSW 3.2 mph /  5.1 km/h 5.8 mph /  9.3 km/h 71 % 0.00 in /  0 mm
07:45 68.1 °F /  20.1 °C 57.9 °F /  14.4 °C 29.93 in /  1013.4 hPa West 1.6 mph /  2.6 km/h 4.6 mph /  7.4 km/h 70 % 0.00 in /  0 mm
07:50 68.3 °F /  20.2 °C 58.5 °F /  14.7 °C 29.93 in /  1013.4 hPa WSW 2.1 mph /  3.4 km/h 3.5 mph /  5.6 km/h 71 % 0.00 in /  0 mm
07:55 68.5 °F /  20.3 °C 58.3 °F /  14.6 °C 29.93 in /  1013.4 hPa West 1.8 mph /  2.9 km/h 5.0 mph /  8 km/h 70 % 0.00 in /  0 mm
08:00 68.7 °F /  20.4 °C 58.1 °F /  14.5 °C 29.93 in /  1013.4 hPa West 2.4 mph /  3.9 km/h 4.6 mph /  7.4 km/h 69 % 0.00 in /  0 mm
08:05 68.9 °F /  20.5 °C 58.3 °F /  14.6 °C 29.93 in /  1013.4 hPa SW 2.7 mph /  4.3 km/h 4.6 mph /  7.4 km/h 69 % 0.00 in /  0 mm
08:10 69.1 °F /  20.6 °C 58.1 °F /  14.5 °C 29.93 in /  1013.4 hPa WNW 2.9 mph /  4.7 km/h 5.8 mph /  9.3 km/h 68 % 0.00 in /  0 mm
08:12 69.2 °F /  20.7 °C 58.2 °F /  14.6 °C 29.94 in /  1013.8 hPa West 2.5 mph /  4 km/h 3.5 mph /  5.6 km/h 68 % 0.00 in /  0 mm
08:17 69.4 °F /  20.8 °C 58.8 °F /  14.9 °C 29.94 in /  1013.8 hPa WSW 0.1 mph /  0.2 km/h 1.2 mph /  1.9 km/h 69 % 0.00 in /  0 mm
08:22 69.7 °F /  20.9 °C 59.5 °F /  15.3 °C 29.94 in /  1013.8 hPa WNW 1.1 mph /  1.8 km/h 3.0 mph /  4.8 km/h 70 % 0.00 in /  0 mm
08:27 70.0 °F /  21.1 °C 58.5 °F /  14.7 °C 29.94 in /  1013.8 hPa WNW 2.5 mph /  4 km/h 4.0 mph /  6.4 km/h 67 % 0.00 in /  0 mm
08:32 70.3 °F /  21.3 °C 58.4 °F /  14.7 °C 29.94 in /  1013.8 hPa WSW 3.9 mph /  6.3 km/h 6.9 mph /  11.1 km/h 66 % 0.00 in /  0 mm
08:37 70.6 °F /  21.4 °C 58.3 °F /  14.6 °C 29.95 in /  1014.1 hPa West 4.7 mph /  7.6 km/h 6.9 mph /  11.1 km/h 65 % 0.00 in /  0 mm
08:42 71.0 °F /  21.7 °C 57.8 °F /  14.3 °C 29.95 in /  1014.1 hPa WSW 4.3 mph /  6.9 km/h 6.9 mph /  11.1 km/h 63 % 0.00 in /  0 mm
08:47 71.2 °F /  21.8 °C 58.0 °F /  14.4 °C 29.95 in /  1014.1 hPa SW 3.4 mph /  5.5 km/h 9.0 mph /  14.5 km/h 63 % 0.00 in /  0 mm
08:52 71.5 °F /  21.9 °C 58.7 °F /  14.8 °C 29.95 in /  1014.1 hPa WSW 3.1 mph /  5 km/h 6.0 mph /  9.7 km/h 64 % 0.00 in /  0 mm
08:57 71.7 °F /  22.1 °C 58.9 °F /  14.9 °C 29.95 in /  1014.1 hPa WSW 2.9 mph /  4.7 km/h 6.9 mph /  11.1 km/h 64 % 0.00 in /  0 mm
09:02 71.8 °F /  22.1 °C 59.4 °F /  15.2 °C 29.95 in /  1014.1 hPa West 2.3 mph /  3.7 km/h 4.0 mph /  6.4 km/h 65 % 0.00 in /  0 mm
09:03 71.8 °F /  22.1 °C 59.0 °F /  15 °C 29.95 in /  1014.1 hPa WSW 2.9 mph /  4.7 km/h 8.0 mph /  12.9 km/h 64 % 0.00 in /  0 mm
09:08 72.0 °F /  22.2 °C 59.2 °F /  15.1 °C 29.95 in /  1014.1 hPa WSW 1.3 mph /  2.1 km/h 6.9 mph /  11.1 km/h 64 % 0.00 in /  0 mm
09:13 72.2 °F /  22.3 °C 59.3 °F /  15.2 °C 29.95 in /  1014.1 hPa WSW 3.7 mph /  6 km/h 5.8 mph /  9.3 km/h 64 % 0.00 in /  0 mm
09:18 72.4 °F /  22.4 °C 59.1 °F /  15.1 °C 29.95 in /  1014.1 hPa WSW 4.9 mph /  7.9 km/h 6.9 mph /  11.1 km/h 63 % 0.00 in /  0 mm
09:23 72.6 °F /  22.6 °C 59.7 °F /  15.4 °C 29.95 in /  1014.1 hPa West 2.6 mph /  4.2 km/h 4.6 mph /  7.4 km/h 64 % 0.00 in /  0 mm
09:28 72.9 °F /  22.7 °C 60.0 °F /  15.6 °C 29.95 in /  1014.1 hPa WSW 5.1 mph /  8.2 km/h 6.9 mph /  11.1 km/h 64 % 0.00 in /  0 mm
09:32 73.1 °F /  22.8 °C 60.2 °F /  15.7 °C 29.95 in /  1014.1 hPa WNW 2.9 mph /  4.7 km/h 6.9 mph /  11.1 km/h 64 % 0.00 in /  0 mm
09:37 73.5 °F /  23.1 °C 60.1 °F /  15.6 °C 29.95 in /  1014.1 hPa WSW 2.7 mph /  4.3 km/h 4.6 mph /  7.4 km/h 63 % 0.00 in /  0 mm
09:42 74.0 °F /  23.3 °C 61.0 °F /  16.1 °C 29.96 in /  1014.4 hPa WNW 2.2 mph /  3.5 km/h 4.6 mph /  7.4 km/h 64 % 0.00 in /  0 mm
09:47 74.7 °F /  23.7 °C 60.8 °F /  16 °C 29.96 in /  1014.4 hPa WSW 2.5 mph /  4 km/h 4.6 mph /  7.4 km/h 62 % 0.00 in /  0 mm
09:52 75.6 °F /  24.2 °C 61.2 °F /  16.2 °C 29.96 in /  1014.4 hPa SW 5.3 mph /  8.5 km/h 11.0 mph /  17.7 km/h 61 % 0.00 in /  0 mm
09:57 76.6 °F /  24.8 °C 62.1 °F /  16.7 °C 29.97 in /  1014.8 hPa NW 2.3 mph /  3.7 km/h 6.9 mph /  11.1 km/h 61 % 0.00 in /  0 mm
10:02 77.3 °F /  25.2 °C 60.9 °F /  16.1 °C 29.97 in /  1014.8 hPa NW 1.3 mph /  2.1 km/h 3.5 mph /  5.6 km/h 57 % 0.00 in /  0 mm
10:07 77.9 °F /  25.5 °C 60.4 °F /  15.8 °C 29.97 in /  1014.8 hPa WSW 4.3 mph /  6.9 km/h 6.9 mph /  11.1 km/h 55 % 0.00 in /  0 mm
10:12 78.8 °F /  26 °C 61.3 °F /  16.3 °C 29.97 in /  1014.8 hPa SW 5.9 mph /  9.5 km/h 9.2 mph /  14.8 km/h 55 % 0.00 in /  0 mm
10:17 79.7 °F /  26.5 °C 61.6 °F /  16.4 °C 29.97 in /  1014.8 hPa WSW 4.2 mph /  6.8 km/h 9.2 mph /  14.8 km/h 54 % 0.00 in /  0 mm
10:22 80.4 °F /  26.9 °C 62.8 °F /  17.1 °C 29.97 in /  1014.8 hPa WNW 1.5 mph /  2.4 km/h 3.5 mph /  5.6 km/h 55 % 0.00 in /  0 mm
10:28 81.1 °F /  27.3 °C 63.4 °F /  17.4 °C 29.97 in /  1014.8 hPa WSW 3.7 mph /  6 km/h 9.0 mph /  14.5 km/h 55 % 0.00 in /  0 mm
10:33 81.7 °F /  27.6 °C 62.4 °F /  16.9 °C 29.97 in /  1014.8 hPa WSW 3.5 mph /  5.6 km/h 4.6 mph /  7.4 km/h 52 % 0.00 in /  0 mm
10:38 82.3 °F /  27.9 °C 62.4 °F /  16.9 °C 29.96 in /  1014.4 hPa WSW 0.5 mph /  0.8 km/h 5.8 mph /  9.3 km/h 51 % 0.00 in /  0 mm
10:43 82.7 °F /  28.2 °C 61.6 °F /  16.4 °C 29.96 in /  1014.4 hPa WSW 5.6 mph /  9 km/h 8.1 mph /  13 km/h 49 % 0.00 in /  0 mm
10:48 83.1 °F /  28.4 °C 62.5 °F /  16.9 °C 29.96 in /  1014.4 hPa WNW 2.6 mph /  4.2 km/h 5.8 mph /  9.3 km/h 50 % 0.00 in /  0 mm
10:53 83.5 °F /  28.6 °C 62.3 °F /  16.8 °C 29.96 in /  1014.4 hPa West 0.9 mph /  1.4 km/h 2.3 mph /  3.7 km/h 49 % 0.00 in /  0 mm
10:58 83.7 °F /  28.7 °C 62.5 °F /  16.9 °C 29.96 in /  1014.4 hPa SW 4.2 mph /  6.8 km/h 5.8 mph /  9.3 km/h 49 % 0.00 in /  0 mm
11:03 84.0 °F /  28.9 °C 62.8 °F /  17.1 °C 29.96 in /  1014.4 hPa SW 4.1 mph /  6.6 km/h 6.9 mph /  11.1 km/h 49 % 0.00 in /  0 mm
11:08 84.1 °F /  28.9 °C 62.3 °F /  16.8 °C 29.96 in /  1014.4 hPa WSW 2.4 mph /  3.9 km/h 4.6 mph /  7.4 km/h 48 % 0.00 in /  0 mm
11:13 84.4 °F /  29.1 °C 62.6 °F /  17 °C 29.96 in /  1014.4 hPa SW 3.0 mph /  4.8 km/h 4.6 mph /  7.4 km/h 48 % 0.00 in /  0 mm
11:14 84.4 °F /  29.1 °C 62.0 °F /  16.7 °C 29.96 in /  1014.4 hPa WSW 0.4 mph /  0.6 km/h 4.6 mph /  7.4 km/h 47 % 0.00 in /  0 mm
11:19 84.7 °F /  29.3 °C 62.8 °F /  17.1 °C 29.96 in /  1014.4 hPa WNW 1.4 mph /  2.3 km/h 3.5 mph /  5.6 km/h 48 % 0.00 in /  0 mm
11:24 85.1 °F /  29.5 °C 63.8 °F /  17.7 °C 29.96 in /  1014.4 hPa SW 3.7 mph /  6 km/h 5.8 mph /  9.3 km/h 49 % 0.00 in /  0 mm
11:29 85.6 °F /  29.8 °C 63.1 °F /  17.3 °C 29.95 in /  1014.1 hPa West 1.8 mph /  2.9 km/h 3.5 mph /  5.6 km/h 47 % 0.00 in /  0 mm
11:34 85.7 °F /  29.8 °C 61.3 °F /  16.3 °C 29.95 in /  1014.1 hPa WSW 2.2 mph /  3.5 km/h 3.5 mph /  5.6 km/h 44 % 0.00 in /  0 mm
11:39 86.0 °F /  30 °C 63.4 °F /  17.4 °C 29.95 in /  1014.1 hPa SSW 2.6 mph /  4.2 km/h 4.6 mph /  7.4 km/h 47 % 0.00 in /  0 mm
11:44 86.3 °F /  30.2 °C 63.1 °F /  17.3 °C 29.95 in /  1014.1 hPa SW 3.6 mph /  5.8 km/h 6.9 mph /  11.1 km/h 46 % 0.00 in /  0 mm
11:49 86.6 °F /  30.3 °C 63.4 °F /  17.4 °C 29.95 in /  1014.1 hPa WSW 3.7 mph /  6 km/h 6.0 mph /  9.7 km/h 46 % 0.00 in /  0 mm
11:54 86.8 °F /  30.4 °C 63.5 °F /  17.5 °C 29.95 in /  1014.1 hPa SW 3.0 mph /  4.8 km/h 5.8 mph /  9.3 km/h 46 % 0.00 in /  0 mm
11:59 86.8 °F /  30.4 °C 63.5 °F /  17.5 °C 29.95 in /  1014.1 hPa WSW 1.4 mph /  2.3 km/h 5.0 mph /  8 km/h 46 % 0.00 in /  0 mm
12:04 86.9 °F /  30.5 °C 63.6 °F /  17.6 °C 29.95 in /  1014.1 hPa NW 2.3 mph /  3.7 km/h 6.9 mph /  11.1 km/h 46 % 0.00 in /  0 mm
12:09 87.2 °F /  30.7 °C 63.3 °F /  17.4 °C 29.95 in /  1014.1 hPa North 4.2 mph /  6.8 km/h 9.2 mph /  14.8 km/h 45 % 0.00 in /  0 mm
12:14 87.5 °F /  30.8 °C 62.9 °F /  17.2 °C 29.95 in /  1014.1 hPa West 4.3 mph /  6.9 km/h 6.9 mph /  11.1 km/h 44 % 0.00 in /  0 mm
12:19 87.8 °F /  31 °C 63.8 °F /  17.7 °C 29.95 in /  1014.1 hPa WNW 0.9 mph /  1.4 km/h 2.3 mph /  3.7 km/h 45 % 0.00 in /  0 mm
12:22 88.0 °F /  31.1 °C 64.0 °F /  17.8 °C 29.95 in /  1014.1 hPa NW 3.6 mph /  5.8 km/h 6.9 mph /  11.1 km/h 45 % 0.00 in /  0 mm
12:27 88.1 °F /  31.2 °C 62.8 °F /  17.1 °C 29.95 in /  1014.1 hPa WNW 0.9 mph /  1.4 km/h 3.5 mph /  5.6 km/h 43 % 0.00 in /  0 mm
12:32 88.3 °F /  31.3 °C 64.9 °F /  18.3 °C 29.95 in /  1014.1 hPa WSW 1.2 mph /  1.9 km/h 6.0 mph /  9.7 km/h 46 % 0.00 in /  0 mm
12:37 88.3 °F /  31.3 °C 62.3 °F /  16.8 °C 29.95 in /  1014.1 hPa WSW 1.6 mph /  2.6 km/h 6.9 mph /  11.1 km/h 42 % 0.00 in /  0 mm
12:42 88.5 °F /  31.4 °C 63.1 °F /  17.3 °C 29.95 in /  1014.1 hPa West 2.6 mph /  4.2 km/h 5.8 mph /  9.3 km/h 43 % 0.00 in /  0 mm
12:47 88.6 °F /  31.4 °C 61.2 °F /  16.2 °C 29.95 in /  1014.1 hPa WNW 4.0 mph /  6.4 km/h 6.9 mph /  11.1 km/h 40 % 0.00 in /  0 mm
12:52 88.7 °F /  31.5 °C 62.0 °F /  16.7 °C 29.95 in /  1014.1 hPa SW 4.1 mph /  6.6 km/h 8.1 mph /  13 km/h 41 % 0.00 in /  0 mm
12:57 88.7 °F /  31.5 °C 62.0 °F /  16.7 °C 29.94 in /  1013.8 hPa North 4.5 mph /  7.2 km/h 9.2 mph /  14.8 km/h 41 % 0.00 in /  0 mm
13:02 88.7 °F /  31.5 °C 65.3 °F /  18.5 °C 29.94 in /  1013.8 hPa WNW 1.0 mph /  1.6 km/h 5.8 mph /  9.3 km/h 46 % 0.00 in /  0 mm
13:07 88.9 °F /  31.6 °C 63.5 °F /  17.5 °C 29.94 in /  1013.8 hPa WNW 3.5 mph /  5.6 km/h 6.0 mph /  9.7 km/h 43 % 0.00 in /  0 mm
13:13 89.1 °F /  31.7 °C 63.7 °F /  17.6 °C 29.94 in /  1013.8 hPa NNE 2.2 mph /  3.5 km/h 4.6 mph /  7.4 km/h 43 % 0.00 in /  0 mm
13:18 89.3 °F /  31.8 °C 62.5 °F /  16.9 °C 29.93 in /  1013.4 hPa West 1.1 mph /  1.8 km/h 8.1 mph /  13 km/h 41 % 0.00 in /  0 mm
13:23 89.6 °F /  32 °C 64.8 °F /  18.2 °C 29.93 in /  1013.4 hPa NW 0.9 mph /  1.4 km/h 4.6 mph /  7.4 km/h 44 % 0.00 in /  0 mm
13:28 89.9 °F /  32.2 °C 65.1 °F /  18.4 °C 29.93 in /  1013.4 hPa NNE 0.5 mph /  0.8 km/h 1.2 mph /  1.9 km/h 44 % 0.00 in /  0 mm
13:33 90.1 °F /  32.3 °C 61.8 °F /  16.6 °C 29.93 in /  1013.4 hPa WNW 0.9 mph /  1.4 km/h 2.3 mph /  3.7 km/h 39 % 0.00 in /  0 mm
13:34 90.2 °F /  32.3 °C 63.3 °F /  17.4 °C 29.93 in /  1013.4 hPa WNW 1.6 mph /  2.6 km/h 2.3 mph /  3.7 km/h 41 % 0.00 in /  0 mm
13:39 90.4 °F /  32.4 °C 63.5 °F /  17.5 °C 29.93 in /  1013.4 hPa WSW 2.1 mph /  3.4 km/h 6.9 mph /  11.1 km/h 41 % 0.00 in /  0 mm
13:44 90.5 °F /  32.5 °C 62.9 °F /  17.2 °C 29.93 in /  1013.4 hPa SW 3.4 mph /  5.5 km/h 5.0 mph /  8 km/h 40 % 0.00 in /  0 mm
13:49 90.5 °F /  32.5 °C 61.4 °F /  16.3 °C 29.93 in /  1013.4 hPa WSW 3.4 mph /  5.5 km/h 6.9 mph /  11.1 km/h 38 % 0.00 in /  0 mm
13:54 90.6 °F /  32.6 °C 63.0 °F /  17.2 °C 29.93 in /  1013.4 hPa SW 3.5 mph /  5.6 km/h 9.2 mph /  14.8 km/h 40 % 0.00 in /  0 mm
13:59 90.5 °F /  32.5 °C 61.4 °F /  16.3 °C 29.93 in /  1013.4 hPa WSW 6.5 mph /  10.5 km/h 10.4 mph /  16.7 km/h 38 % 0.00 in /  0 mm
14:04 90.5 °F /  32.5 °C 62.9 °F /  17.2 °C 29.93 in /  1013.4 hPa SW 4.8 mph /  7.7 km/h 8.1 mph /  13 km/h 40 % 0.00 in /  0 mm
14:09 90.6 °F /  32.6 °C 62.3 °F /  16.8 °C 29.93 in /  1013.4 hPa West 4.8 mph /  7.7 km/h 10.4 mph /  16.7 km/h 39 % 0.00 in /  0 mm
14:14 90.5 °F /  32.5 °C 62.2 °F /  16.8 °C 29.92 in /  1013.1 hPa WSW 7.2 mph /  11.6 km/h 16.0 mph /  25.7 km/h 39 % 0.00 in /  0 mm
14:19 90.3 °F /  32.4 °C 62.0 °F /  16.7 °C 29.93 in /  1013.4 hPa SSW 3.9 mph /  6.3 km/h 9.2 mph /  14.8 km/h 39 % 0.00 in /  0 mm
14:24 90.4 °F /  32.4 °C 61.3 °F /  16.3 °C 29.92 in /  1013.1 hPa WSW 2.3 mph /  3.7 km/h 9.2 mph /  14.8 km/h 38 % 0.00 in /  0 mm
14:29 90.4 °F /  32.4 °C 62.8 °F /  17.1 °C 29.92 in /  1013.1 hPa SW 3.8 mph /  6.1 km/h 11.0 mph /  17.7 km/h 40 % 0.00 in /  0 mm
14:34 90.4 °F /  32.4 °C 62.8 °F /  17.1 °C 29.92 in /  1013.1 hPa SSW 2.7 mph /  4.3 km/h 5.0 mph /  8 km/h 40 % 0.00 in /  0 mm
14:39 90.3 °F /  32.4 °C 62.0 °F /  16.7 °C 29.92 in /  1013.1 hPa SW 4.7 mph /  7.6 km/h 9.2 mph /  14.8 km/h 39 % 0.00 in /  0 mm
14:44 90.3 °F /  32.4 °C 62.7 °F /  17.1 °C 29.92 in /  1013.1 hPa SSE 4.7 mph /  7.6 km/h 10.4 mph /  16.7 km/h 40 % 0.00 in /  0 mm
14:49 90.3 °F /  32.4 °C 62.7 °F /  17.1 °C 29.92 in /  1013.1 hPa WNW 3.6 mph /  5.8 km/h 7.0 mph /  11.3 km/h 40 % 0.00 in /  0 mm
14:54 90.1 °F /  32.3 °C 62.5 °F /  16.9 °C 29.93 in /  1013.4 hPa SSW 4.7 mph /  7.6 km/h 10.4 mph /  16.7 km/h 40 % 0.00 in /  0 mm
14:59 90.0 °F /  32.2 °C 63.8 °F /  17.7 °C 29.92 in /  1013.1 hPa SSW 3.7 mph /  6 km/h 5.0 mph /  8 km/h 42 % 0.00 in /  0 mm
15:04 89.8 °F /  32.1 °C 63.6 °F /  17.6 °C 29.92 in /  1013.1 hPa South 0.7 mph /  1.1 km/h 3.5 mph /  5.6 km/h 42 % 0.00 in /  0 mm
15:09 89.2 °F /  31.8 °C 61.7 °F /  16.5 °C 29.92 in /  1013.1 hPa SW 4.6 mph /  7.4 km/h 9.2 mph /  14.8 km/h 40 % 0.00 in /  0 mm
15:14 88.8 °F /  31.6 °C 62.7 °F /  17.1 °C 29.92 in /  1013.1 hPa SE 1.7 mph /  2.7 km/h 6.9 mph /  11.1 km/h 42 % 0.00 in /  0 mm
15:19 88.4 °F /  31.3 °C 63.1 °F /  17.3 °C 29.92 in /  1013.1 hPa SSE 0.6 mph /  1 km/h 2.3 mph /  3.7 km/h 43 % 0.00 in /  0 mm
15:24 88.2 °F /  31.2 °C 62.2 °F /  16.8 °C 29.92 in /  1013.1 hPa SSW 3.7 mph /  6 km/h 8.1 mph /  13 km/h 42 % 0.00 in /  0 mm
15:30 88.1 °F /  31.2 °C 63.4 °F /  17.4 °C 29.92 in /  1013.1 hPa SSW 1.2 mph /  1.9 km/h 4.6 mph /  7.4 km/h 44 % 0.00 in /  0 mm
15:35 87.8 °F /  31 °C 63.2 °F /  17.3 °C 29.92 in /  1013.1 hPa SE 3.1 mph /  5 km/h 5.8 mph /  9.3 km/h 44 % 0.00 in /  0 mm
15:40 87.1 °F /  30.6 °C 60.5 °F /  15.8 °C 29.92 in /  1013.1 hPa South 4.7 mph /  7.6 km/h 10.4 mph /  16.7 km/h 41 % 0.00 in /  0 mm
15:45 86.3 °F /  30.2 °C 63.1 °F /  17.3 °C 29.92 in /  1013.1 hPa SSW 2.8 mph /  4.5 km/h 5.8 mph /  9.3 km/h 46 % 0.00 in /  0 mm
15:50 85.8 °F /  29.9 °C 62.0 °F /  16.7 °C 29.92 in /  1013.1 hPa SSW 2.2 mph /  3.5 km/h 6.9 mph /  11.1 km/h 45 % 0.00 in /  0 mm
15:55 85.5 °F /  29.7 °C 61.1 °F /  16.2 °C 29.92 in /  1013.1 hPa SSE 3.3 mph /  5.3 km/h 8.1 mph /  13 km/h 44 % 0.00 in /  0 mm
16:00 85.0 °F /  29.4 °C 61.9 °F /  16.6 °C 29.92 in /  1013.1 hPa SSE 2.3 mph /  3.7 km/h 5.8 mph /  9.3 km/h 46 % 0.00 in /  0 mm
16:05 84.8 °F /  29.3 °C 62.9 °F /  17.2 °C 29.92 in /  1013.1 hPa South 0.9 mph /  1.4 km/h 4.6 mph /  7.4 km/h 48 % 0.00 in /  0 mm
16:10 84.7 °F /  29.3 °C 61.6 °F /  16.4 °C 29.92 in /  1013.1 hPa East 1.9 mph /  3.1 km/h 3.5 mph /  5.6 km/h 46 % 0.00 in /  0 mm
16:15 84.6 °F /  29.2 °C 62.1 °F /  16.7 °C 29.92 in /  1013.1 hPa SSW 4.2 mph /  6.8 km/h 6.9 mph /  11.1 km/h 47 % 0.00 in /  0 mm
16:20 84.3 °F /  29.1 °C 61.9 °F /  16.6 °C 29.92 in /  1013.1 hPa SSE 1.0 mph /  1.6 km/h 5.8 mph /  9.3 km/h 47 % 0.00 in /  0 mm
16:25 83.9 °F /  28.8 °C 62.1 °F /  16.7 °C 29.92 in /  1013.1 hPa West 1.2 mph /  1.9 km/h 3.5 mph /  5.6 km/h 48 % 0.00 in /  0 mm
16:40 83.6 °F /  28.7 °C 63.6 °F /  17.6 °C 29.91 in /  1012.8 hPa SSW 3.7 mph /  6 km/h 15.0 mph /  24.1 km/h 51 % 0.00 in /  0 mm
16:45 83.7 °F /  28.7 °C 63.1 °F /  17.3 °C 29.91 in /  1012.8 hPa SW 1.9 mph /  3.1 km/h 5.8 mph /  9.3 km/h 50 % 0.00 in /  0 mm
16:50 83.7 °F /  28.7 °C 62.5 °F /  16.9 °C 29.91 in /  1012.8 hPa SW 3.4 mph /  5.5 km/h 8.0 mph /  12.9 km/h 49 % 0.00 in /  0 mm
16:55 83.6 °F /  28.7 °C 61.8 °F /  16.6 °C 29.91 in /  1012.8 hPa South 4.6 mph /  7.4 km/h 11.5 mph /  18.5 km/h 48 % 0.00 in /  0 mm
17:00 83.5 °F /  28.6 °C 62.3 °F /  16.8 °C 29.90 in /  1012.4 hPa SSE 3.3 mph /  5.3 km/h 6.9 mph /  11.1 km/h 49 % 0.00 in /  0 mm
17:05 83.4 °F /  28.6 °C 62.2 °F /  16.8 °C 29.91 in /  1012.8 hPa SSW 4.2 mph /  6.8 km/h 6.9 mph /  11.1 km/h 49 % 0.00 in /  0 mm
17:10 83.3 °F /  28.5 °C 61.6 °F /  16.4 °C 29.90 in /  1012.4 hPa SSW 3.3 mph /  5.3 km/h 5.0 mph /  8 km/h 48 % 0.00 in /  0 mm
17:15 83.2 °F /  28.4 °C 61.5 °F /  16.4 °C 29.90 in /  1012.4 hPa SE 3.8 mph /  6.1 km/h 6.9 mph /  11.1 km/h 48 % 0.00 in /  0 mm
17:20 83.0 °F /  28.3 °C 60.7 °F /  15.9 °C 29.90 in /  1012.4 hPa South 3.4 mph /  5.5 km/h 5.0 mph /  8 km/h 47 % 0.00 in /  0 mm
17:25 82.6 °F /  28.1 °C 60.3 °F /  15.7 °C 29.90 in /  1012.4 hPa South 1.8 mph /  2.9 km/h 3.5 mph /  5.6 km/h 47 % 0.00 in /  0 mm
17:28 82.5 °F /  28.1 °C 60.8 °F /  16 °C 29.90 in /  1012.4 hPa SE 1.6 mph /  2.6 km/h 4.6 mph /  7.4 km/h 48 % 0.00 in /  0 mm
17:33 82.4 °F /  28 °C 61.3 °F /  16.3 °C 29.90 in /  1012.4 hPa SE 0.5 mph /  0.8 km/h 4.6 mph /  7.4 km/h 49 % 0.00 in /  0 mm
17:39 82.2 °F /  27.9 °C 60.6 °F /  15.9 °C 29.90 in /  1012.4 hPa SSE 2.1 mph /  3.4 km/h 4.0 mph /  6.4 km/h 48 % 0.00 in /  0 mm
17:40 82.2 °F /  27.9 °C 60.6 °F /  15.9 °C 29.90 in /  1012.4 hPa SSE 3.2 mph /  5.1 km/h 5.8 mph /  9.3 km/h 48 % 0.00 in /  0 mm
17:46 82.0 °F /  27.8 °C 60.4 °F /  15.8 °C 29.90 in /  1012.4 hPa South 4.3 mph /  6.9 km/h 7.0 mph /  11.3 km/h 48 % 0.00 in /  0 mm
17:51 81.7 °F /  27.6 °C 60.1 °F /  15.6 °C 29.90 in /  1012.4 hPa South 3.0 mph /  4.8 km/h 7.0 mph /  11.3 km/h 48 % 0.00 in /  0 mm
17:56 81.5 °F /  27.5 °C 60.5 °F /  15.8 °C 29.90 in /  1012.4 hPa SE 1.8 mph /  2.9 km/h 6.9 mph /  11.1 km/h 49 % 0.00 in /  0 mm
18:01 81.2 °F /  27.3 °C 60.2 °F /  15.7 °C 29.90 in /  1012.4 hPa SSW 2.2 mph /  3.5 km/h 6.9 mph /  11.1 km/h 49 % 0.00 in /  0 mm
18:06 80.9 °F /  27.2 °C 60.5 °F /  15.8 °C 29.90 in /  1012.4 hPa South 1.7 mph /  2.7 km/h 8.1 mph /  13 km/h 50 % 0.00 in /  0 mm
18:11 80.7 °F /  27.1 °C 60.9 °F /  16.1 °C 29.90 in /  1012.4 hPa SW 1.7 mph /  2.7 km/h 3.5 mph /  5.6 km/h 51 % 0.00 in /  0 mm
18:16 80.4 °F /  26.9 °C 60.6 °F /  15.9 °C 29.90 in /  1012.4 hPa South 1.1 mph /  1.8 km/h 3.5 mph /  5.6 km/h 51 % 0.00 in /  0 mm
18:21 80.1 °F /  26.7 °C 60.3 °F /  15.7 °C 29.90 in /  1012.4 hPa SSE 1.3 mph /  2.1 km/h 3.5 mph /  5.6 km/h 51 % 0.00 in /  0 mm
18:26 79.8 °F /  26.6 °C 60.6 °F /  15.9 °C 29.90 in /  1012.4 hPa SSW 1.0 mph /  1.6 km/h 3.5 mph /  5.6 km/h 52 % 0.00 in /  0 mm
18:31 79.6 °F /  26.4 °C 61.0 °F /  16.1 °C 29.91 in /  1012.8 hPa South 3.4 mph /  5.5 km/h 11.5 mph /  18.5 km/h 53 % 0.00 in /  0 mm
18:36 79.5 °F /  26.4 °C 60.9 °F /  16.1 °C 29.90 in /  1012.4 hPa SSW 3.5 mph /  5.6 km/h 7.0 mph /  11.3 km/h 53 % 0.00 in /  0 mm
18:41 79.3 °F /  26.3 °C 61.2 °F /  16.2 °C 29.90 in /  1012.4 hPa SSW 3.2 mph /  5.1 km/h 6.9 mph /  11.1 km/h 54 % 0.00 in /  0 mm
18:46 79.1 °F /  26.2 °C 61.5 °F /  16.4 °C 29.90 in /  1012.4 hPa SSE 3.8 mph /  6.1 km/h 6.0 mph /  9.7 km/h 55 % 0.00 in /  0 mm
18:51 79.0 °F /  26.1 °C 61.5 °F /  16.4 °C 29.90 in /  1012.4 hPa SSW 3.8 mph /  6.1 km/h 7.0 mph /  11.3 km/h 55 % 0.00 in /  0 mm
18:56 78.9 °F /  26.1 °C 61.4 °F /  16.3 °C 29.91 in /  1012.8 hPa SW 1.6 mph /  2.6 km/h 3.5 mph /  5.6 km/h 55 % 0.00 in /  0 mm
19:01 78.7 °F /  25.9 °C 61.7 °F /  16.5 °C 29.91 in /  1012.8 hPa SSW 3.2 mph /  5.1 km/h 6.0 mph /  9.7 km/h 56 % 0.00 in /  0 mm
19:06 78.5 °F /  25.8 °C 61.5 °F /  16.4 °C 29.91 in /  1012.8 hPa South 3.4 mph /  5.5 km/h 5.8 mph /  9.3 km/h 56 % 0.00 in /  0 mm
19:11 78.4 °F /  25.8 °C 61.9 °F /  16.6 °C 29.92 in /  1013.1 hPa WSW 4.0 mph /  6.4 km/h 6.9 mph /  11.1 km/h 57 % 0.00 in /  0 mm
19:16 78.2 °F /  25.7 °C 61.7 °F /  16.5 °C 29.91 in /  1012.8 hPa WSW 2.6 mph /  4.2 km/h 9.2 mph /  14.8 km/h 57 % 0.00 in /  0 mm
19:21 78.0 °F /  25.6 °C 61.5 °F /  16.4 °C 29.91 in /  1012.8 hPa SW 3.0 mph /  4.8 km/h 8.1 mph /  13 km/h 57 % 0.00 in /  0 mm
19:26 77.9 °F /  25.5 °C 61.9 °F /  16.6 °C 29.92 in /  1013.1 hPa SSW 2.6 mph /  4.2 km/h 6.9 mph /  11.1 km/h 58 % 0.00 in /  0 mm
19:31 77.6 °F /  25.3 °C 61.7 °F /  16.5 °C 29.92 in /  1013.1 hPa SSW 1.4 mph /  2.3 km/h 5.8 mph /  9.3 km/h 58 % 0.00 in /  0 mm
19:36 77.4 °F /  25.2 °C 61.9 °F /  16.6 °C 29.92 in /  1013.1 hPa SW 2.5 mph /  4 km/h 5.0 mph /  8 km/h 59 % 0.00 in /  0 mm
19:41 77.2 °F /  25.1 °C 61.8 °F /  16.6 °C 29.92 in /  1013.1 hPa SSW 3.4 mph /  5.5 km/h 6.9 mph /  11.1 km/h 59 % 0.00 in /  0 mm
19:46 76.9 °F /  24.9 °C 61.5 °F /  16.4 °C 29.92 in /  1013.1 hPa SSW 2.3 mph /  3.7 km/h 8.1 mph /  13 km/h 59 % 0.00 in /  0 mm
19:51 76.7 °F /  24.8 °C 61.8 °F /  16.6 °C 29.92 in /  1013.1 hPa South 3.2 mph /  5.1 km/h 9.2 mph /  14.8 km/h 60 % 0.00 in /  0 mm
19:56 76.4 °F /  24.7 °C 61.5 °F /  16.4 °C 29.92 in /  1013.1 hPa SE 2.0 mph /  3.2 km/h 5.8 mph /  9.3 km/h 60 % 0.00 in /  0 mm
20:01 76.2 °F /  24.6 °C 61.3 °F /  16.3 °C 29.92 in /  1013.1 hPa South 1.9 mph /  3.1 km/h 3.5 mph /  5.6 km/h 60 % 0.00 in /  0 mm
20:06 76.1 °F /  24.5 °C 61.7 °F /  16.5 °C 29.92 in /  1013.1 hPa WSW 1.7 mph /  2.7 km/h 3.5 mph /  5.6 km/h 61 % 0.00 in /  0 mm
20:11 75.8 °F /  24.3 °C 61.4 °F /  16.3 °C 29.93 in /  1013.4 hPa SW 1.2 mph /  1.9 km/h 4.6 mph /  7.4 km/h 61 % 0.00 in /  0 mm
20:16 75.7 °F /  24.3 °C 61.8 °F /  16.6 °C 29.93 in /  1013.4 hPa SE 1.7 mph /  2.7 km/h 3.5 mph /  5.6 km/h 62 % 0.00 in /  0 mm
20:21 75.5 °F /  24.2 °C 61.6 °F /  16.4 °C 29.93 in /  1013.4 hPa South 1.6 mph /  2.6 km/h 5.8 mph /  9.3 km/h 62 % 0.00 in /  0 mm
20:26 75.3 °F /  24.1 °C 61.8 °F /  16.6 °C 29.93 in /  1013.4 hPa SW 1.0 mph /  1.6 km/h 3.5 mph /  5.6 km/h 63 % 0.00 in /  0 mm
20:31 75.1 °F /  23.9 °C 61.6 °F /  16.4 °C 29.93 in /  1013.4 hPa South 2.1 mph /  3.4 km/h 3.5 mph /  5.6 km/h 63 % 0.00 in /  0 mm
20:36 74.9 °F /  23.8 °C 61.9 °F /  16.6 °C 29.94 in /  1013.8 hPa SSW 2.4 mph /  3.9 km/h 5.8 mph /  9.3 km/h 64 % 0.00 in /  0 mm
20:41 74.8 °F /  23.8 °C 61.8 °F /  16.6 °C 29.94 in /  1013.8 hPa South 0.6 mph /  1 km/h 3.5 mph /  5.6 km/h 64 % 0.00 in /  0 mm
20:46 74.6 °F /  23.7 °C 62.1 °F /  16.7 °C 29.94 in /  1013.8 hPa South 0.6 mph /  1 km/h 6.9 mph /  11.1 km/h 65 % 0.00 in /  0 mm
20:52 74.5 °F /  23.6 °C 62.0 °F /  16.7 °C 29.94 in /  1013.8 hPa South 0.9 mph /  1.4 km/h 3.5 mph /  5.6 km/h 65 % 0.00 in /  0 mm
20:57 74.3 °F /  23.5 °C 62.2 °F /  16.8 °C 29.94 in /  1013.8 hPa SW 1.8 mph /  2.9 km/h 3.5 mph /  5.6 km/h 66 % 0.00 in /  0 mm
21:02 74.2 °F /  23.4 °C 62.1 °F /  16.7 °C 29.95 in /  1014.1 hPa South 1.1 mph /  1.8 km/h 3.5 mph /  5.6 km/h 66 % 0.00 in /  0 mm
21:07 74.1 °F /  23.4 °C 62.4 °F /  16.9 °C 29.95 in /  1014.1 hPa South 0.6 mph /  1 km/h 2.3 mph /  3.7 km/h 67 % 0.00 in /  0 mm
21:12 73.9 °F /  23.3 °C 62.2 °F /  16.8 °C 29.95 in /  1014.1 hPa SSW 0.8 mph /  1.3 km/h 3.5 mph /  5.6 km/h 67 % 0.00 in /  0 mm
21:17 73.8 °F /  23.2 °C 62.2 °F /  16.8 °C 29.95 in /  1014.1 hPa SSW 2.2 mph /  3.5 km/h 3.5 mph /  5.6 km/h 67 % 0.00 in /  0 mm
21:22 73.7 °F /  23.2 °C 62.5 °F /  16.9 °C 29.95 in /  1014.1 hPa SSW 1.9 mph /  3.1 km/h 3.5 mph /  5.6 km/h 68 % 0.00 in /  0 mm
21:24 73.7 °F /  23.2 °C 62.5 °F /  16.9 °C 29.95 in /  1014.1 hPa SW 2.1 mph /  3.4 km/h 4.6 mph /  7.4 km/h 68 % 0.00 in /  0 mm
21:30 73.5 °F /  23.1 °C 62.7 °F /  17.1 °C 29.96 in /  1014.4 hPa SSW 0.6 mph /  1 km/h 3.5 mph /  5.6 km/h 69 % 0.00 in /  0 mm
21:35 73.3 °F /  22.9 °C 62.5 °F /  16.9 °C 29.96 in /  1014.4 hPa SW 0.6 mph /  1 km/h 3.5 mph /  5.6 km/h 69 % 0.00 in /  0 mm
21:40 73.2 °F /  22.9 °C 62.4 °F /  16.9 °C 29.96 in /  1014.4 hPa SSW 1.7 mph /  2.7 km/h 3.5 mph /  5.6 km/h 69 % 0.00 in /  0 mm
21:45 73.1 °F /  22.8 °C 62.3 °F /  16.8 °C 29.97 in /  1014.8 hPa SSW 0.7 mph /  1.1 km/h 3.5 mph /  5.6 km/h 69 % 0.00 in /  0 mm
21:50 73.1 °F /  22.8 °C 62.7 °F /  17.1 °C 29.97 in /  1014.8 hPa WSW 0.7 mph /  1.1 km/h 3.5 mph /  5.6 km/h 70 % 0.00 in /  0 mm
21:55 73.0 °F /  22.8 °C 62.6 °F /  17 °C 29.97 in /  1014.8 hPa WSW 0.7 mph /  1.1 km/h 3.5 mph /  5.6 km/h 70 % 0.00 in /  0 mm
22:00 72.9 °F /  22.7 °C 62.5 °F /  16.9 °C 29.97 in /  1014.8 hPa SSE 0.1 mph /  0.2 km/h 1.2 mph /  1.9 km/h 70 % 0.00 in /  0 mm
22:05 72.8 °F /  22.7 °C 62.4 °F /  16.9 °C 29.97 in /  1014.8 hPa South 0.6 mph /  1 km/h 3.5 mph /  5.6 km/h 70 % 0.00 in /  0 mm
22:10 72.7 °F /  22.6 °C 62.3 °F /  16.8 °C 29.98 in /  1015.1 hPa SSW 1.7 mph /  2.7 km/h 3.5 mph /  5.6 km/h 70 % 0.00 in /  0 mm
22:15 72.6 °F /  22.6 °C 62.3 °F /  16.8 °C 29.98 in /  1015.1 hPa SSW 2.2 mph /  3.5 km/h 3.5 mph /  5.6 km/h 70 % 0.00 in /  0 mm
22:20 72.6 °F /  22.6 °C 62.7 °F /  17.1 °C 29.98 in /  1015.1 hPa SSE 2.6 mph /  4.2 km/h 6.9 mph /  11.1 km/h 71 % 0.00 in /  0 mm
22:25 72.5 °F /  22.5 °C 62.6 °F /  17 °C 29.97 in /  1014.8 hPa WSW 3.1 mph /  5 km/h 4.6 mph /  7.4 km/h 71 % 0.00 in /  0 mm
22:30 72.5 °F /  22.5 °C 62.6 °F /  17 °C 29.98 in /  1015.1 hPa SW 0.6 mph /  1 km/h 2.3 mph /  3.7 km/h 71 % 0.00 in /  0 mm
22:35 72.5 °F /  22.5 °C 62.6 °F /  17 °C 29.98 in /  1015.1 hPa WSW 2.5 mph /  4 km/h 5.0 mph /  8 km/h 71 % 0.00 in /  0 mm
22:38 72.4 °F /  22.4 °C 62.9 °F /  17.2 °C 29.98 in /  1015.1 hPa SW 2.0 mph /  3.2 km/h 3.5 mph /  5.6 km/h 72 % 0.00 in /  0 mm
22:43 72.4 °F /  22.4 °C 62.9 °F /  17.2 °C 29.98 in /  1015.1 hPa SW 3.1 mph /  5 km/h 4.0 mph /  6.4 km/h 72 % 0.00 in /  0 mm
22:48 72.3 °F /  22.4 °C 62.8 °F /  17.1 °C 29.98 in /  1015.1 hPa SSW 0.4 mph /  0.6 km/h 3.5 mph /  5.6 km/h 72 % 0.00 in /  0 mm
22:53 72.3 °F /  22.4 °C 62.8 °F /  17.1 °C 29.97 in /  1014.8 hPa SSW 4.1 mph /  6.6 km/h 8.1 mph /  13 km/h 72 % 0.00 in /  0 mm
22:58 72.3 °F /  22.4 °C 62.8 °F /  17.1 °C 29.97 in /  1014.8 hPa SSW 1.5 mph /  2.4 km/h 3.5 mph /  5.6 km/h 72 % 0.00 in /  0 mm
23:03 72.2 °F /  22.3 °C 62.7 °F /  17.1 °C 29.98 in /  1015.1 hPa SSW 0.9 mph /  1.4 km/h 3.5 mph /  5.6 km/h 72 % 0.00 in /  0 mm
23:08 72.2 °F /  22.3 °C 62.7 °F /  17.1 °C 29.97 in /  1014.8 hPa SSW 1.4 mph /  2.3 km/h 5.0 mph /  8 km/h 72 % 0.00 in /  0 mm
23:13 72.1 °F /  22.3 °C 62.6 °F /  17 °C 29.98 in /  1015.1 hPa West 1.9 mph /  3.1 km/h 3.5 mph /  5.6 km/h 72 % 0.00 in /  0 mm
23:18 72.0 °F /  22.2 °C 62.5 °F /  16.9 °C 29.97 in /  1014.8 hPa SE 0.7 mph /  1.1 km/h 2.3 mph /  3.7 km/h 72 % 0.00 in /  0 mm
23:23 72.0 °F /  22.2 °C 62.5 °F /  16.9 °C 29.97 in /  1014.8 hPa WSW 3.5 mph /  5.6 km/h 3.5 mph /  5.6 km/h 72 % 0.00 in /  0 mm
23:28 71.9 °F /  22.2 °C 62.4 °F /  16.9 °C 29.97 in /  1014.8 hPa WSW 3.1 mph /  5 km/h 11.5 mph /  18.5 km/h 72 % 0.00 in /  0 mm
23:33 71.8 °F /  22.1 °C 62.7 °F /  17.1 °C 29.98 in /  1015.1 hPa SW 1.2 mph /  1.9 km/h 3.5 mph /  5.6 km/h 73 % 0.00 in /  0 mm
23:39 71.7 °F /  22.1 °C 62.6 °F /  17 °C 29.98 in /  1015.1 hPa SSW 1.6 mph /  2.6 km/h 3.5 mph /  5.6 km/h 73 % 0.00 in /  0 mm
23:44 71.7 °F /  22.1 °C 62.6 °F /  17 °C 29.98 in /  1015.1 hPa SW 1.1 mph /  1.8 km/h 3.5 mph /  5.6 km/h 73 % 0.00 in /  0 mm
23:49 71.6 °F /  22 °C 62.9 °F /  17.2 °C 29.98 in /  1015.1 hPa SSW 3.1 mph /  5 km/h 7.0 mph /  11.3 km/h 74 % 0.00 in /  0 mm
23:54 71.6 °F /  22 °C 62.9 °F /  17.2 °C 29.98 in /  1015.1 hPa SW 1.0 mph /  1.6 km/h 3.5 mph /  5.6 km/h 74 % 0.00 in /  0 mm
23:59 71.5 °F /  21.9 °C 62.8 °F /  17.1 °C 29.98 in /  1015.1 hPa SSW 3.0 mph /  4.8 km/h 5.0 mph /  8 km/h 74 % 0.00 in /  0 mm
Crab Meadow Weather
Compliments of Weather Underground - 3 mb

Script developed by  Jim McMurry - jmcmurry@mwt.net Adapted for the template by  Wim van der Kuil - Leuven-Template.eu

Weather Terms: Heat Advisory - Maximum heat index of 105 to 110°F with a minimum of 75°F for two or more consecutive days.